sensor_id;sensor_type;location;lat;lon;timestamp;pressure;altitude;pressure_sealevel;temperature;humidity
46007;BME280;31738;50.188;8.524;2022-08-07T00:01:17;99764.34;;;17.93;43.80
46007;BME280;31738;50.188;8.524;2022-08-07T00:03:43;99756.78;;;17.90;44.01
46007;BME280;31738;50.188;8.524;2022-08-07T00:06:08;99752.25;;;17.85;43.64
46007;BME280;31738;50.188;8.524;2022-08-07T00:08:34;99753.94;;;17.81;43.51
46007;BME280;31738;50.188;8.524;2022-08-07T00:11:02;99759.94;;;17.78;43.62
46007;BME280;31738;50.188;8.524;2022-08-07T00:13:28;99754.81;;;17.77;43.89
46007;BME280;31738;50.188;8.524;2022-08-07T00:15:54;99745.88;;;17.76;43.79
46007;BME280;31738;50.188;8.524;2022-08-07T00:18:23;99745.38;;;17.74;43.63
46007;BME280;31738;50.188;8.524;2022-08-07T00:20:49;99744.56;;;17.74;100.00
46007;BME280;31738;50.188;8.524;2022-08-07T00:23:15;62988.22;;;-141.52;100.00
46007;BME280;31738;50.188;8.524;2022-08-07T00:25:41;62988.22;;;-141.52;100.00
46007;BME280;31738;50.188;8.524;2022-08-07T00:28:06;62988.22;;;-141.52;100.00
46007;BME280;31738;50.188;8.524;2022-08-07T00:30:32;62988.22;;;-141.52;100.00
46007;BME280;31738;50.188;8.524;2022-08-07T00:32:59;62988.22;;;-141.52;100.00
46007;BME280;31738;50.188;8.524;2022-08-07T00:35:26;62988.22;;;-141.52;100.00
46007;BME280;31738;50.188;8.524;2022-08-07T00:37:52;62988.22;;;-141.52;100.00
46007;BME280;31738;50.188;8.524;2022-08-07T00:40:18;62988.22;;;-141.52;100.00
46007;BME280;31738;50.188;8.524;2022-08-07T00:42:43;62988.22;;;-141.52;100.00
46007;BME280;31738;50.188;8.524;2022-08-07T00:45:10;99744.56;;;17.74;43.56
46007;BME280;31738;50.188;8.524;2022-08-07T00:47:36;99714.66;;;17.60;44.60
46007;BME280;31738;50.188;8.524;2022-08-07T00:50:03;99720.38;;;17.59;44.06
46007;BME280;31738;50.188;8.524;2022-08-07T00:52:29;99719.84;;;17.57;44.50
46007;BME280;31738;50.188;8.524;2022-08-07T00:54:54;99712.00;;;17.55;44.61
46007;BME280;31738;50.188;8.524;2022-08-07T00:57:21;99705.50;;;17.56;44.38
46007;BME280;31738;50.188;8.524;2022-08-07T00:59:47;99707.38;;;17.56;44.21
46007;BME280;31738;50.188;8.524;2022-08-07T01:02:12;99709.28;;;17.55;44.20
46007;BME280;31738;50.188;8.524;2022-08-07T01:04:38;99707.69;;;17.54;44.51
46007;BME280;31738;50.188;8.524;2022-08-07T01:07:04;99700.66;;;17.53;44.72
46007;BME280;31738;50.188;8.524;2022-08-07T01:09:31;99701.75;;;17.52;44.55
46007;BME280;31738;50.188;8.524;2022-08-07T01:11:56;99702.84;;;17.51;44.40
46007;BME280;31738;50.188;8.524;2022-08-07T01:14:23;99704.75;;;17.51;44.70
46007;BME280;31738;50.188;8.524;2022-08-07T01:16:50;99700.13;;;17.51;44.74
46007;BME280;31738;50.188;8.524;2022-08-07T01:19:19;99696.41;;;17.47;44.54
46007;BME280;31738;50.188;8.524;2022-08-07T01:21:50;99700.72;;;17.48;44.51
46007;BME280;31738;50.188;8.524;2022-08-07T01:24:17;99694.19;;;17.49;44.58
46007;BME280;31738;50.188;8.524;2022-08-07T01:26:44;99690.16;;;17.47;44.84
46007;BME280;31738;50.188;8.524;2022-08-07T01:29:09;99691.00;;;17.47;44.65
46007;BME280;31738;50.188;8.524;2022-08-07T01:31:38;99697.78;;;17.45;44.83
46007;BME280;31738;50.188;8.524;2022-08-07T01:34:04;99688.31;;;17.42;44.74
46007;BME280;31738;50.188;8.524;2022-08-07T01:36:34;99692.19;;;17.36;45.15
46007;BME280;31738;50.188;8.524;2022-08-07T01:39:04;99690.91;;;17.34;45.10
46007;BME280;31738;50.188;8.524;2022-08-07T01:41:31;99690.66;;;17.30;45.38
46007;BME280;31738;50.188;8.524;2022-08-07T01:43:59;99689.03;;;17.29;45.38
46007;BME280;31738;50.188;8.524;2022-08-07T01:46:28;99683.91;;;17.28;45.37
46007;BME280;31738;50.188;8.524;2022-08-07T01:48:53;99692.63;;;17.25;45.21
46007;BME280;31738;50.188;8.524;2022-08-07T01:51:24;99685.00;;;17.27;45.26
46007;BME280;31738;50.188;8.524;2022-08-07T01:53:52;99683.72;;;17.24;45.32
46007;BME280;31738;50.188;8.524;2022-08-07T01:56:30;99678.13;;;17.16;45.89
46007;BME280;31738;50.188;8.524;2022-08-07T01:59:05;99683.53;;;17.16;45.69
46007;BME280;31738;50.188;8.524;2022-08-07T02:01:35;99682.16;;;17.18;45.49
46007;BME280;31738;50.188;8.524;2022-08-07T02:04:15;99679.53;;;17.13;45.45
46007;BME280;31738;50.188;8.524;2022-08-07T02:06:46;99677.91;;;17.12;45.74
46007;BME280;31738;50.188;8.524;2022-08-07T02:09:15;99676.28;;;17.11;46.07
46007;BME280;31738;50.188;8.524;2022-08-07T02:11:44;99679.28;;;17.09;45.88
46007;BME280;31738;50.188;8.524;2022-08-07T02:14:11;99682.53;;;17.12;45.73
46007;BME280;31738;50.188;8.524;2022-08-07T02:16:39;99677.69;;;17.08;45.82
46007;BME280;31738;50.188;8.524;2022-08-07T02:19:07;99674.16;;;17.08;45.81
46007;BME280;31738;50.188;8.524;2022-08-07T02:21:36;99677.47;;;17.05;45.92
46007;BME280;31738;50.188;8.524;2022-08-07T02:24:04;99673.16;;;17.04;45.75
46007;BME280;31738;50.188;8.524;2022-08-07T02:26:31;99669.91;;;17.02;45.89
46007;BME280;31738;50.188;8.524;2022-08-07T02:28:59;99675.63;;;17.00;46.01
46007;BME280;31738;50.188;8.524;2022-08-07T02:31:26;99675.91;;;16.99;45.93
46007;BME280;31738;50.188;8.524;2022-08-07T02:33:53;99672.38;;;16.98;45.95
46007;BME280;31738;50.188;8.524;2022-08-07T02:36:21;99668.06;;;16.97;46.30
46007;BME280;31738;50.188;8.524;2022-08-07T02:38:48;99666.47;;;16.96;46.34
46007;BME280;31738;50.188;8.524;2022-08-07T02:41:15;99667.84;;;16.94;46.06
46007;BME280;31738;50.188;8.524;2022-08-07T02:43:44;99661.63;;;16.93;46.09
46007;BME280;31738;50.188;8.524;2022-08-07T02:46:15;99660.00;;;16.92;46.07
46007;BME280;31738;50.188;8.524;2022-08-07T02:48:42;99659.50;;;16.90;46.34
46007;BME280;31738;50.188;8.524;2022-08-07T02:51:12;99665.22;;;16.89;46.27
46007;BME280;31738;50.188;8.524;2022-08-07T02:53:41;99656.56;;;16.87;46.29
46007;BME280;31738;50.188;8.524;2022-08-07T02:56:14;99662.22;;;16.90;46.23
46007;BME280;31738;50.188;8.524;2022-08-07T02:58:43;99652.75;;;16.88;46.49
46007;BME280;31738;50.188;8.524;2022-08-07T03:01:10;99655.75;;;16.86;46.05
46007;BME280;31738;50.188;8.524;2022-08-07T03:03:36;99649.03;;;16.84;46.63
46007;BME280;31738;50.188;8.524;2022-08-07T03:06:03;99636.88;;;16.81;46.55
46007;BME280;31738;50.188;8.524;2022-08-07T03:12:17;99648.13;;;16.70;46.81
46007;BME280;31738;50.188;8.524;2022-08-07T03:14:43;99646.13;;;16.75;46.50
46007;BME280;31738;50.188;8.524;2022-08-07T03:17:11;99636.34;;;16.79;46.33
46007;BME280;31738;50.188;8.524;2022-08-07T03:19:37;99630.94;;;16.79;46.53
46007;BME280;31738;50.188;8.524;2022-08-07T03:22:07;99628.50;;;16.78;46.38
46007;BME280;31738;50.188;8.524;2022-08-07T03:24:34;99632.31;;;16.77;46.51
46007;BME280;31738;50.188;8.524;2022-08-07T03:27:02;99622.28;;;16.77;46.53
46007;BME280;31738;50.188;8.524;2022-08-07T03:29:47;99625.84;;;16.73;46.62
46007;BME280;31738;50.188;8.524;2022-08-07T03:32:14;99619.34;;;16.74;46.78
46007;BME280;31738;50.188;8.524;2022-08-07T03:34:42;99623.66;;;16.75;46.85
46007;BME280;31738;50.188;8.524;2022-08-07T03:37:09;99618.25;;;16.75;46.56
46007;BME280;31738;50.188;8.524;2022-08-07T03:39:37;99618.25;;;16.75;46.60
46007;BME280;31738;50.188;8.524;2022-08-07T03:42:04;99629.09;;;16.75;46.61
46007;BME280;31738;50.188;8.524;2022-08-07T03:44:32;99622.84;;;16.74;46.60
46007;BME280;31738;50.188;8.524;2022-08-07T03:46:59;99629.69;;;16.72;46.62
46007;BME280;31738;50.188;8.524;2022-08-07T03:49:26;99622.84;;;16.74;46.62
46007;BME280;31738;50.188;8.524;2022-08-07T03:51:52;99632.38;;;16.72;46.45
46007;BME280;31738;50.188;8.524;2022-08-07T03:54:19;99618.84;;;16.72;46.93
46007;BME280;31738;50.188;8.524;2022-08-07T03:56:45;99611.00;;;16.70;46.95
46007;BME280;31738;50.188;8.524;2022-08-07T03:59:12;99621.03;;;16.70;46.88
46007;BME280;31738;50.188;8.524;2022-08-07T04:01:43;99609.66;;;16.68;46.96
46007;BME280;31738;50.188;8.524;2022-08-07T04:04:09;99617.78;;;16.68;46.88
46007;BME280;31738;50.188;8.524;2022-08-07T04:06:36;99621.03;;;16.70;46.66
46007;BME280;31738;50.188;8.524;2022-08-07T04:09:12;99629.22;;;16.65;46.99
46007;BME280;31738;50.188;8.524;2022-08-07T04:11:38;99625.41;;;16.66;46.90
46007;BME280;31738;50.188;8.524;2022-08-07T04:14:05;99622.72;;;16.66;46.88
46007;BME280;31738;50.188;8.524;2022-08-07T04:16:31;99621.38;;;16.63;46.88
46007;BME280;31738;50.188;8.524;2022-08-07T04:19:00;99625.41;;;16.66;46.88
46007;BME280;31738;50.188;8.524;2022-08-07T04:21:25;99630.03;;;16.65;46.97
46007;BME280;31738;50.188;8.524;2022-08-07T04:23:52;99630.03;;;16.65;46.87
46007;BME280;31738;50.188;8.524;2022-08-07T04:26:17;99629.22;;;16.65;47.12
46007;BME280;31738;50.188;8.524;2022-08-07T04:28:43;99639.25;;;16.64;46.92
46007;BME280;31738;50.188;8.524;2022-08-07T04:31:09;99643.88;;;16.64;47.14
46007;BME280;31738;50.188;8.524;2022-08-07T04:33:35;99639.25;;;16.64;47.19
46007;BME280;31738;50.188;8.524;2022-08-07T04:36:03;99650.31;;;16.68;47.32
46007;BME280;31738;50.188;8.524;2022-08-07T04:38:29;99648.13;;;16.70;47.25
46007;BME280;31738;50.188;8.524;2022-08-07T04:40:56;99644.31;;;16.71;47.15
46007;BME280;31738;50.188;8.524;2022-08-07T04:43:48;99636.47;;;16.69;47.15
46007;BME280;31738;50.188;8.524;2022-08-07T04:51:52;99641.69;;;16.66;47.29
46007;BME280;31738;50.188;8.524;2022-08-07T04:54:35;99651.66;;;16.70;47.22
46007;BME280;31738;50.188;8.524;2022-08-07T04:59:41;99644.19;;;16.81;47.19
46007;BME280;31738;50.188;8.524;2022-08-07T05:02:13;99642.50;;;16.85;47.06
46007;BME280;31738;50.188;8.524;2022-08-07T05:07:37;99650.03;;;16.88;47.08
46007;BME280;31738;50.188;8.524;2022-08-07T05:10:16;99657.09;;;16.89;47.18
46007;BME280;31738;50.188;8.524;2022-08-07T05:12:54;99647.28;;;16.93;47.11
46007;BME280;31738;50.188;8.524;2022-08-07T05:15:29;99655.84;;;17.00;46.81
46007;BME280;31738;50.188;8.524;2022-08-07T05:18:04;99661.19;;;17.05;47.00
46007;BME280;31738;50.188;8.524;2022-08-07T05:20:41;99663.91;;;17.05;46.86
46007;BME280;31738;50.188;8.524;2022-08-07T05:23:20;99664.41;;;17.07;47.04
46007;BME280;31738;50.188;8.524;2022-08-07T05:25:49;99666.47;;;17.15;46.67
46007;BME280;31738;50.188;8.524;2022-08-07T05:28:17;99659.06;;;17.21;46.88
46007;BME280;31738;50.188;8.524;2022-08-07T05:30:44;99676.88;;;17.27;46.41
46007;BME280;31738;50.188;8.524;2022-08-07T05:33:12;99673.81;;;17.33;46.35
46007;BME280;31738;50.188;8.524;2022-08-07T05:35:40;99668.81;;;17.40;46.65
46007;BME280;31738;50.188;8.524;2022-08-07T05:38:07;99669.06;;;17.44;46.70
46007;BME280;31738;50.188;8.524;2022-08-07T05:40:35;99672.47;;;17.49;46.46
46007;BME280;31738;50.188;8.524;2022-08-07T05:43:03;99686.28;;;17.53;46.18
46007;BME280;31738;50.188;8.524;2022-08-07T05:45:29;99678.88;;;17.58;46.42
46007;BME280;31738;50.188;8.524;2022-08-07T05:47:59;99688.03;;;17.62;46.46
46007;BME280;31738;50.188;8.524;2022-08-07T05:50:27;99680.59;;;17.68;46.26
46007;BME280;31738;50.188;8.524;2022-08-07T05:52:53;99675.41;;;17.71;46.33
46007;BME280;31738;50.188;8.524;2022-08-07T05:55:19;99683.75;;;17.75;45.94
46007;BME280;31738;50.188;8.524;2022-08-07T05:57:45;99692.59;;;17.80;45.69
46007;BME280;31738;50.188;8.524;2022-08-07T06:00:13;99689.00;;;17.85;45.71
46007;BME280;31738;50.188;8.524;2022-08-07T06:02:46;99682.69;;;17.89;46.04
46007;BME280;31738;50.188;8.524;2022-08-07T06:05:14;99690.75;;;17.94;45.83
46007;BME280;31738;50.188;8.524;2022-08-07T06:07:42;99697.69;;;18.00;46.08
46007;BME280;31738;50.188;8.524;2022-08-07T06:10:09;99692.19;;;18.05;45.68
46007;BME280;31738;50.188;8.524;2022-08-07T06:12:36;99704.88;;;18.10;45.67
46007;BME280;31738;50.188;8.524;2022-08-07T06:15:02;99700.97;;;18.16;45.53
46007;BME280;31738;50.188;8.524;2022-08-07T06:17:30;99704.66;;;18.20;45.03
46007;BME280;31738;50.188;8.524;2022-08-07T06:19:57;99704.88;;;18.23;45.36
46007;BME280;31738;50.188;8.524;2022-08-07T06:22:24;99707.53;;;18.28;45.26
46007;BME280;31738;50.188;8.524;2022-08-07T06:24:57;99706.91;;;18.31;44.84
46007;BME280;31738;50.188;8.524;2022-08-07T06:27:24;99702.50;;;18.35;45.02
46007;BME280;31738;50.188;8.524;2022-08-07T06:29:51;99704.53;;;18.43;45.14
46007;BME280;31738;50.188;8.524;2022-08-07T06:32:17;99705.53;;;18.47;44.97
46007;BME280;31738;50.188;8.524;2022-08-07T06:34:43;99706.56;;;18.51;44.84
46007;BME280;31738;50.188;8.524;2022-08-07T06:37:09;99710.81;;;18.57;44.47
46007;BME280;31738;50.188;8.524;2022-08-07T06:39:37;99711.78;;;18.61;44.70
46007;BME280;31738;50.188;8.524;2022-08-07T06:42:14;99704.38;;;18.67;44.49
46007;BME280;31738;50.188;8.524;2022-08-07T06:45:10;99714.22;;;18.63;44.35
46007;BME280;31738;50.188;8.524;2022-08-07T06:47:39;99712.53;;;18.67;44.44
46007;BME280;31738;50.188;8.524;2022-08-07T06:50:05;99711.00;;;18.75;44.24
46007;BME280;31738;50.188;8.524;2022-08-07T06:52:35;99711.69;;;18.80;44.14
46007;BME280;31738;50.188;8.524;2022-08-07T06:55:13;99715.09;;;18.86;43.75
46007;BME280;31738;50.188;8.524;2022-08-07T06:57:41;99708.97;;;18.94;44.28
46007;BME280;31738;50.188;8.524;2022-08-07T07:00:09;99710.06;;;19.06;44.06
46007;BME280;31738;50.188;8.524;2022-08-07T07:02:35;99709.53;;;19.18;43.98
46007;BME280;31738;50.188;8.524;2022-08-07T07:05:03;99701.06;;;19.33;43.84
46007;BME280;31738;50.188;8.524;2022-08-07T07:07:30;99708.69;;;19.44;43.78
46007;BME280;31738;50.188;8.524;2022-08-07T07:09:56;99712.47;;;19.57;43.29
46007;BME280;31738;50.188;8.524;2022-08-07T07:12:30;99714.84;;;19.72;42.91
46007;BME280;31738;50.188;8.524;2022-08-07T07:15:12;99708.16;;;19.78;42.65
46007;BME280;31738;50.188;8.524;2022-08-07T07:17:59;99718.31;;;19.86;42.63
46007;BME280;31738;50.188;8.524;2022-08-07T07:20:32;99713.09;;;19.98;43.44
46007;BME280;31738;50.188;8.524;2022-08-07T07:22:59;99710.13;;;20.08;42.58
46007;BME280;31738;50.188;8.524;2022-08-07T07:25:26;99710.88;;;20.22;42.35
46007;BME280;31738;50.188;8.524;2022-08-07T07:27:57;99712.41;;;20.37;42.95
46007;BME280;31738;50.188;8.524;2022-08-07T07:30:25;99717.75;;;20.50;43.02
46007;BME280;31738;50.188;8.524;2022-08-07T07:32:53;99721.47;;;20.54;41.76
46007;BME280;31738;50.188;8.524;2022-08-07T07:35:23;99727.91;;;20.58;41.63
46007;BME280;31738;50.188;8.524;2022-08-07T07:37:49;99716.06;;;20.71;41.98
46007;BME280;31738;50.188;8.524;2022-08-07T07:40:19;99722.34;;;20.80;41.89
46007;BME280;31738;50.188;8.524;2022-08-07T07:42:47;99730.88;;;20.87;41.39
46007;BME280;31738;50.188;8.524;2022-08-07T07:45:15;99722.56;;;20.92;40.90
46007;BME280;31738;50.188;8.524;2022-08-07T07:47:43;99732.06;;;21.03;40.51
46007;BME280;31738;50.188;8.524;2022-08-07T07:50:12;99736.28;;;21.18;41.01
46007;BME280;31738;50.188;8.524;2022-08-07T07:52:40;99732.47;;;21.27;40.48
46007;BME280;31738;50.188;8.524;2022-08-07T07:55:06;99730.06;;;21.34;40.17
46007;BME280;31738;50.188;8.524;2022-08-07T07:57:33;99733.78;;;21.38;40.13
46007;BME280;31738;50.188;8.524;2022-08-07T08:00:00;99739.22;;;21.47;40.11
46007;BME280;31738;50.188;8.524;2022-08-07T08:02:39;99740.34;;;21.54;40.08
46007;BME280;31738;50.188;8.524;2022-08-07T08:05:07;99728.97;;;21.61;40.13
46007;BME280;31738;50.188;8.524;2022-08-07T08:07:34;99728.28;;;21.72;40.75
46007;BME280;31738;50.188;8.524;2022-08-07T08:10:01;99733.81;;;21.81;39.87
46007;BME280;31738;50.188;8.524;2022-08-07T08:12:27;99729.63;;;21.83;39.28
46007;BME280;31738;50.188;8.524;2022-08-07T08:14:53;99728.97;;;21.86;39.72
46007;BME280;31738;50.188;8.524;2022-08-07T08:17:19;99735.22;;;21.95;39.77
46007;BME280;31738;50.188;8.524;2022-08-07T08:19:47;99734.91;;;22.06;39.35
46007;BME280;31738;50.188;8.524;2022-08-07T08:22:16;99734.41;;;22.04;39.10
46007;BME280;31738;50.188;8.524;2022-08-07T08:25:00;99734.09;;;21.88;40.13
46007;BME280;31738;50.188;8.524;2022-08-07T08:27:49;99729.56;;;22.09;39.22
46007;BME280;31738;50.188;8.524;2022-08-07T08:30:17;99731.94;;;22.28;38.97
46007;BME280;31738;50.188;8.524;2022-08-07T08:32:47;99731.28;;;22.39;38.98
46007;BME280;31738;50.188;8.524;2022-08-07T08:35:19;99738.34;;;22.49;38.29
46007;BME280;31738;50.188;8.524;2022-08-07T08:37:46;99736.53;;;22.61;39.12
46007;BME280;31738;50.188;8.524;2022-08-07T08:40:17;99730.88;;;22.75;38.86
46007;BME280;31738;50.188;8.524;2022-08-07T08:42:51;99740.50;;;22.81;38.50
46007;BME280;31738;50.188;8.524;2022-08-07T08:45:37;99740.78;;;22.88;38.27
46007;BME280;31738;50.188;8.524;2022-08-07T08:51:17;99734.69;;;23.11;38.08
46007;BME280;31738;50.188;8.524;2022-08-07T08:53:51;99737.84;;;23.22;37.89
46007;BME280;31738;50.188;8.524;2022-08-07T08:56:26;99742.28;;;23.06;37.72
46007;BME280;31738;50.188;8.524;2022-08-07T08:59:00;99742.94;;;23.03;37.92
46007;BME280;31738;50.188;8.524;2022-08-07T09:01:33;99741.00;;;23.03;38.46
46007;BME280;31738;50.188;8.524;2022-08-07T09:04:17;99737.56;;;23.15;38.27
46007;BME280;31738;50.188;8.524;2022-08-07T09:06:59;99734.63;;;23.28;38.40
46007;BME280;31738;50.188;8.524;2022-08-07T09:24:02;99718.28;;;24.14;38.29
46007;BME280;31738;50.188;8.524;2022-08-07T09:29:16;99710.81;;;24.47;37.64
46007;BME280;31738;50.188;8.524;2022-08-07T09:31:54;99703.13;;;24.53;37.61
46007;BME280;31738;50.188;8.524;2022-08-07T09:34:28;99706.47;;;24.58;37.76
46007;BME280;31738;50.188;8.524;2022-08-07T09:37:03;99707.72;;;24.61;37.01
46007;BME280;31738;50.188;8.524;2022-08-07T09:39:50;99714.00;;;24.49;37.21
46007;BME280;31738;50.188;8.524;2022-08-07T09:42:47;99718.13;;;24.55;37.44
46007;BME280;31738;50.188;8.524;2022-08-07T09:45:23;99709.59;;;24.69;37.33
46007;BME280;31738;50.188;8.524;2022-08-07T09:50:35;99690.72;;;24.79;37.50
46007;BME280;31738;50.188;8.524;2022-08-07T09:53:08;99696.78;;;24.97;37.36
46007;BME280;31738;50.188;8.524;2022-08-07T09:55:56;99693.34;;;25.12;37.10
46007;BME280;31738;50.188;8.524;2022-08-07T10:01:35;99689.94;;;25.55;36.96
46007;BME280;31738;50.188;8.524;2022-08-07T10:04:46;99692.84;;;25.74;36.74
46007;BME280;31738;50.188;8.524;2022-08-07T10:07:39;99682.22;;;25.88;37.15
46007;BME280;31738;50.188;8.524;2022-08-07T10:10:39;99671.84;;;26.09;36.85
46007;BME280;31738;50.188;8.524;2022-08-07T10:13:38;99686.66;;;26.20;34.10
46007;BME280;31738;50.188;8.524;2022-08-07T10:24:49;99677.38;;;26.40;35.27
46007;BME280;31738;50.188;8.524;2022-08-07T10:30:17;99682.38;;;26.81;34.12
46007;BME280;31738;50.188;8.524;2022-08-07T10:35:35;99673.53;;;27.07;33.56
46007;BME280;31738;50.188;8.524;2022-08-07T10:43:29;99678.81;;;26.81;34.36
46007;BME280;31738;50.188;8.524;2022-08-07T10:45:59;99681.25;;;27.01;32.92
46007;BME280;31738;50.188;8.524;2022-08-07T10:51:10;99683.09;;;27.47;33.03
46007;BME280;31738;50.188;8.524;2022-08-07T10:54:01;99688.06;;;27.57;32.82
46007;BME280;31738;50.188;8.524;2022-08-07T10:56:48;99694.44;;;27.61;32.49
46007;BME280;31738;50.188;8.524;2022-08-07T10:59:40;99688.19;;;27.64;32.07
46007;BME280;31738;50.188;8.524;2022-08-07T11:02:28;99695.75;;;27.86;32.36
46007;BME280;31738;50.188;8.524;2022-08-07T11:05:17;99700.28;;;27.94;31.59
46007;BME280;31738;50.188;8.524;2022-08-07T11:10:51;99703.50;;;27.81;32.04
46007;BME280;31738;50.188;8.524;2022-08-07T11:13:29;99691.41;;;27.85;31.47
46007;BME280;31738;50.188;8.524;2022-08-07T11:16:03;99706.94;;;27.93;31.24
46007;BME280;31738;50.188;8.524;2022-08-07T11:18:37;99681.94;;;28.05;31.68
46007;BME280;31738;50.188;8.524;2022-08-07T11:21:08;99694.13;;;28.23;31.27
46007;BME280;31738;50.188;8.524;2022-08-07T11:23:53;99694.13;;;28.23;31.03
46007;BME280;31738;50.188;8.524;2022-08-07T11:31:56;99689.63;;;28.38;29.99
46007;BME280;31738;50.188;8.524;2022-08-07T11:34:37;99690.19;;;28.24;29.92
46007;BME280;31738;50.188;8.524;2022-08-07T11:37:12;99694.16;;;28.27;29.87
46007;BME280;31738;50.188;8.524;2022-08-07T11:39:57;99689.44;;;28.47;30.21
46007;BME280;31738;50.188;8.524;2022-08-07T11:42:51;99695.53;;;28.59;29.62
46007;BME280;31738;50.188;8.524;2022-08-07T11:48:28;99684.03;;;28.54;29.42
46007;BME280;31738;50.188;8.524;2022-08-07T11:56:35;99666.41;;;28.62;28.99
46007;BME280;31738;50.188;8.524;2022-08-07T11:59:38;99670.56;;;28.75;28.89
46007;BME280;31738;50.188;8.524;2022-08-07T12:02:32;99664.81;;;28.87;28.77
46007;BME280;31738;50.188;8.524;2022-08-07T12:05:25;99664.50;;;28.92;28.91
46007;BME280;31738;50.188;8.524;2022-08-07T12:08:07;99655.34;;;29.10;28.86
46007;BME280;31738;50.188;8.524;2022-08-07T12:10:40;99653.97;;;29.27;28.90
46007;BME280;31738;50.188;8.524;2022-08-07T12:13:38;99661.19;;;29.35;28.00
46007;BME280;31738;50.188;8.524;2022-08-07T12:16:10;99657.88;;;29.52;28.49
46007;BME280;31738;50.188;8.524;2022-08-07T12:18:52;99665.72;;;29.50;28.43
46007;BME280;31738;50.188;8.524;2022-08-07T12:21:25;99655.00;;;29.45;28.37
46007;BME280;31738;50.188;8.524;2022-08-07T12:24:06;99657.75;;;29.45;28.70
46007;BME280;31738;50.188;8.524;2022-08-07T12:29:24;99660.63;;;29.52;27.29
46007;BME280;31738;50.188;8.524;2022-08-07T12:32:08;99653.59;;;29.02;28.24
46007;BME280;31738;50.188;8.524;2022-08-07T12:34:38;99645.09;;;29.11;28.11
46007;BME280;31738;50.188;8.524;2022-08-07T12:37:06;99643.66;;;29.24;28.31
46007;BME280;31738;50.188;8.524;2022-08-07T12:39:34;99648.41;;;29.23;27.70
46007;BME280;31738;50.188;8.524;2022-08-07T12:42:01;99642.03;;;29.19;27.82
46007;BME280;31738;50.188;8.524;2022-08-07T12:44:28;99640.38;;;29.15;28.02
46007;BME280;31738;50.188;8.524;2022-08-07T12:47:06;99641.22;;;29.19;27.59
46007;BME280;31738;50.188;8.524;2022-08-07T12:49:49;99641.34;;;29.00;28.11
46007;BME280;31738;50.188;8.524;2022-08-07T12:52:35;99637.94;;;29.10;27.51
46007;BME280;31738;50.188;8.524;2022-08-07T12:55:22;99636.03;;;28.88;28.05
46007;BME280;31738;50.188;8.524;2022-08-07T12:57:50;99624.44;;;29.05;27.79
46007;BME280;31738;50.188;8.524;2022-08-07T13:00:17;99633.88;;;29.04;27.48
46007;BME280;31738;50.188;8.524;2022-08-07T13:03:06;99622.97;;;29.11;27.35
46007;BME280;31738;50.188;8.524;2022-08-07T13:11:33;99617.38;;;29.07;27.78
46007;BME280;31738;50.188;8.524;2022-08-07T13:14:07;99620.28;;;28.92;27.38
46007;BME280;31738;50.188;8.524;2022-08-07T13:21:59;99599.06;;;28.96;27.73
46007;BME280;31738;50.188;8.524;2022-08-07T13:24:31;99609.00;;;29.04;27.30
46007;BME280;31738;50.188;8.524;2022-08-07T13:27:18;99605.53;;;29.07;27.69
46007;BME280;31738;50.188;8.524;2022-08-07T13:29:56;99605.63;;;29.14;27.87
46007;BME280;31738;50.188;8.524;2022-08-07T13:32:32;99598.59;;;29.20;27.34
46007;BME280;31738;50.188;8.524;2022-08-07T13:35:06;99604.88;;;29.17;26.95
46007;BME280;31738;50.188;8.524;2022-08-07T13:38:10;99612.13;;;28.99;27.25
46007;BME280;31738;50.188;8.524;2022-08-07T13:41:01;99602.72;;;28.77;27.92
46007;BME280;31738;50.188;8.524;2022-08-07T13:43:29;99593.72;;;28.84;27.75
46007;BME280;31738;50.188;8.524;2022-08-07T13:45:59;99597.94;;;28.74;27.30
46007;BME280;31738;50.188;8.524;2022-08-07T13:48:28;99596.03;;;28.52;27.23
46007;BME280;31738;50.188;8.524;2022-08-07T13:50:57;99582.34;;;28.36;27.94
46007;BME280;31738;50.188;8.524;2022-08-07T13:53:29;99580.75;;;28.35;28.12
46007;BME280;31738;50.188;8.524;2022-08-07T13:55:57;99577.91;;;28.32;28.08
46007;BME280;31738;50.188;8.524;2022-08-07T13:58:24;99569.63;;;28.32;28.25
46007;BME280;31738;50.188;8.524;2022-08-07T14:01:14;99581.41;;;28.29;27.67
46007;BME280;31738;50.188;8.524;2022-08-07T14:03:41;99571.78;;;28.19;28.26
46007;BME280;31738;50.188;8.524;2022-08-07T14:06:09;99566.16;;;28.12;28.22
46007;BME280;31738;50.188;8.524;2022-08-07T14:08:42;99579.09;;;28.08;27.79
46007;BME280;31738;50.188;8.524;2022-08-07T14:11:12;99565.28;;;28.08;27.50
46007;BME280;31738;50.188;8.524;2022-08-07T14:13:39;99567.94;;;28.01;27.67
46007;BME280;31738;50.188;8.524;2022-08-07T14:16:13;99568.84;;;27.86;27.22
46007;BME280;31738;50.188;8.524;2022-08-07T14:18:51;99581.09;;;27.66;27.72
46007;BME280;31738;50.188;8.524;2022-08-07T14:21:23;99581.09;;;27.66;27.47
46007;BME280;31738;50.188;8.524;2022-08-07T14:23:55;99576.28;;;27.63;27.32
46007;BME280;31738;50.188;8.524;2022-08-07T14:26:25;99563.25;;;27.60;28.17
46007;BME280;31738;50.188;8.524;2022-08-07T14:28:53;99566.28;;;27.55;27.40
46007;BME280;31738;50.188;8.524;2022-08-07T14:31:23;99559.03;;;27.47;27.39
46007;BME280;31738;50.188;8.524;2022-08-07T14:33:51;99570.94;;;27.32;27.86
46007;BME280;31738;50.188;8.524;2022-08-07T14:36:19;99563.66;;;27.24;27.64
46007;BME280;31738;50.188;8.524;2022-08-07T14:38:47;99550.03;;;27.12;27.83
46007;BME280;31738;50.188;8.524;2022-08-07T14:41:23;99554.59;;;27.05;28.08
46007;BME280;31738;50.188;8.524;2022-08-07T14:43:51;99550.00;;;27.09;28.46
46007;BME280;31738;50.188;8.524;2022-08-07T14:46:19;99547.72;;;27.14;28.53
46007;BME280;31738;50.188;8.524;2022-08-07T14:48:46;99536.44;;;27.19;28.90
46007;BME280;31738;50.188;8.524;2022-08-07T14:51:18;99537.16;;;27.16;28.43
46007;BME280;31738;50.188;8.524;2022-08-07T14:53:45;99529.25;;;27.15;27.91
46007;BME280;31738;50.188;8.524;2022-08-07T14:56:13;99536.25;;;27.12;28.28
46007;BME280;31738;50.188;8.524;2022-08-07T14:58:42;99528.31;;;27.07;28.12